Time;durP1;ratioP1;P1;durP2;ratioP2;P2;SDS_P1;SDS_P2;PMS_P1;PMS_P2;Temp;Humidity;BMP_temperature;BMP_pressure;BME280_temperature;BME280_humidity;BME280_pressure;Samples;Min_cycle;Max_cycle;Signal;HPM_P1;HPM_P2
2023/03/30 00:00:51;;;;;;;11.68;10.55;;;7.30;99.90;;;;;;5035721;28;20195;-74
2023/03/30 00:03:18;;;;;;;12.20;11.00;;;7.30;99.90;;;;;;5039603;28;20679;-74
2023/03/30 00:05:45;;;;;;;12.55;11.27;;;7.40;99.90;;;;;;5041260;28;20294;-74
2023/03/30 00:08:13;;;;;;;12.48;11.27;;;7.30;99.90;;;;;;5045237;28;20168;-74
2023/03/30 00:10:39;;;;;;;12.65;11.35;;;7.30;99.90;;;;;;5034776;28;20250;-75
2023/03/30 00:13:06;;;;;;;12.80;11.50;;;7.30;99.90;;;;;;5037330;28;20450;-74
2023/03/30 00:15:33;;;;;;;14.13;12.50;;;7.30;99.90;;;;;;5046633;28;20198;-74
2023/03/30 00:18:00;;;;;;;12.45;11.15;;;7.20;99.90;;;;;;5040488;28;20187;-74
2023/03/30 00:20:26;;;;;;;13.55;12.10;;;7.30;99.90;;;;;;5044224;28;20230;-74
2023/03/30 00:22:52;;;;;;;15.00;12.75;;;7.30;99.90;;;;;;5043017;28;20224;-74
2023/03/30 00:25:17;;;;;;;13.85;12.45;;;7.20;99.90;;;;;;5046400;28;20188;-74
2023/03/30 00:27:44;;;;;;;14.57;13.07;;;7.20;99.90;;;;;;5034231;28;20216;-75
2023/03/30 00:30:13;;;;;;;14.02;12.60;;;7.20;99.90;;;;;;5023590;28;20172;-75
2023/03/30 00:32:39;;;;;;;15.38;12.90;;;7.10;99.90;;;;;;5038140;28;20196;-75
2023/03/30 00:35:05;;;;;;;14.60;13.10;;;7.10;99.90;;;;;;5037785;28;20270;-75
2023/03/30 00:37:31;;;;;;;13.27;11.88;;;7.10;99.90;;;;;;5047384;28;20670;-74
2023/03/30 00:39:56;;;;;;;13.95;12.32;;;7.10;99.90;;;;;;5046731;28;20258;-75
2023/03/30 00:42:22;;;;;;;15.50;12.02;;;7.20;99.90;;;;;;5042148;28;20738;-74
2023/03/30 00:45:12;;;;;;;13.65;12.25;;;7.10;99.90;;;;;;5041751;28;20180;-74
2023/03/30 00:47:48;;;;;;;13.05;11.75;;;6.90;99.90;;;;;;5033798;28;20218;-74
2023/03/30 00:50:15;;;;;;;15.75;13.27;;;7.00;99.90;;;;;;5039928;28;20583;-74
2023/03/30 00:52:43;;;;;;;14.55;12.52;;;6.90;99.90;;;;;;5040737;28;20286;-74
2023/03/30 00:55:10;;;;;;;14.25;12.85;;;6.90;99.90;;;;;;5041367;28;20183;-74
2023/03/30 00:57:37;;;;;;;13.07;11.77;;;6.90;99.90;;;;;;5047409;28;20176;-75
2023/03/30 01:00:07;;;;;;;13.32;11.93;;;6.80;99.90;;;;;;5040038;28;20184;-74
2023/03/30 01:02:36;;;;;;;14.13;12.48;;;6.80;99.90;;;;;;5043208;28;20260;-74
2023/03/30 01:05:02;;;;;;;13.20;11.07;;;6.80;99.90;;;;;;5046408;28;20179;-74
2023/03/30 01:07:30;;;;;;;15.13;12.85;;;6.80;99.90;;;;;;5050140;28;20198;-74
2023/03/30 01:09:56;;;;;;;11.82;10.02;;;6.80;99.90;;;;;;5044663;28;20279;-74
2023/03/30 01:12:21;;;;;;;14.50;12.23;;;6.80;99.90;;;;;;5046091;28;20211;-74
2023/03/30 01:14:47;;;;;;;15.48;12.60;;;6.80;99.90;;;;;;5040638;28;20595;-75
2023/03/30 01:17:25;;;;;;;13.63;12.23;;;6.70;99.90;;;;;;5038165;28;20650;-76
2023/03/30 01:20:08;;;;;;;13.73;12.07;;;6.80;99.90;;;;;;5036161;28;20188;-74
2023/03/30 01:23:11;;;;;;;13.43;12.02;;;6.80;99.90;;;;;;5042739;28;20569;-75
2023/03/30 01:26:03;;;;;;;13.75;12.18;;;6.80;99.90;;;;;;5037591;28;20204;-74
2023/03/30 01:28:40;;;;;;;13.45;12.05;;;6.90;99.90;;;;;;5035048;28;20180;-74
2023/03/30 01:31:24;;;;;;;13.25;11.95;;;6.90;99.90;;;;;;5034163;28;20238;-74
2023/03/30 01:34:20;;;;;;;12.65;11.35;;;6.80;99.90;;;;;;5038556;28;20176;-74
2023/03/30 01:37:14;;;;;;;13.52;11.55;;;6.80;99.90;;;;;;5043610;28;20187;-74
2023/03/30 01:39:58;;;;;;;14.23;12.05;;;6.80;99.90;;;;;;5030999;28;20188;-74
2023/03/30 01:42:37;;;;;;;12.15;11.05;;;6.90;99.90;;;;;;5042235;28;20208;-73
2023/03/30 01:45:30;;;;;;;15.90;11.57;;;6.80;99.90;;;;;;5041012;28;20176;-74
2023/03/30 01:48:22;;;;;;;16.77;12.45;;;6.90;99.90;;;;;;5036759;28;20189;-74
2023/03/30 01:51:10;;;;;;;12.50;11.40;;;6.90;99.90;;;;;;5039436;28;20223;-74
2023/03/30 01:53:48;;;;;;;12.55;11.25;;;6.90;99.90;;;;;;5037673;28;20184;-74
2023/03/30 01:56:44;;;;;;;13.80;10.70;;;7.00;99.90;;;;;;5042793;28;20180;-74
2023/03/30 01:59:21;;;;;;;12.77;11.48;;;7.00;99.90;;;;;;5038634;28;20215;-74
2023/03/30 02:01:52;;;;;;;12.20;10.90;;;7.00;99.90;;;;;;5031055;28;20196;-74
2023/03/30 02:04:22;;;;;;;13.77;11.80;;;6.90;99.90;;;;;;5045963;28;20298;-74
2023/03/30 02:06:53;;;;;;;12.02;10.73;;;6.90;99.90;;;;;;5045367;28;20672;-75
2023/03/30 02:09:22;;;;;;;13.55;10.73;;;7.00;99.90;;;;;;5041781;28;20563;-75
2023/03/30 02:11:52;;;;;;;13.23;11.70;;;7.00;99.90;;;;;;5044795;28;20282;-74
2023/03/30 02:14:21;;;;;;;12.70;11.38;;;7.00;99.90;;;;;;5045983;28;20204;-75
2023/03/30 02:16:50;;;;;;;12.82;11.25;;;7.10;99.90;;;;;;5037232;28;20731;-74
2023/03/30 02:19:18;;;;;;;11.77;10.38;;;7.10;99.90;;;;;;5036249;28;20200;-74
2023/03/30 02:21:43;;;;;;;13.23;11.50;;;7.10;99.90;;;;;;5043604;28;20262;-74
2023/03/30 02:24:18;;;;;;;12.68;11.38;;;7.20;99.90;;;;;;5038499;28;20188;-74
2023/03/30 02:26:53;;;;;;;11.50;9.75;;;7.20;99.90;;;;;;5029057;28;20201;-74
2023/03/30 02:29:20;;;;;;;13.10;11.75;;;7.10;99.90;;;;;;5036647;28;20542;-74
2023/03/30 02:31:48;;;;;;;12.38;10.70;;;7.20;99.90;;;;;;5037916;28;20544;-72
2023/03/30 02:34:29;;;;;;;12.98;11.57;;;7.20;99.90;;;;;;5039393;28;20232;-73
2023/03/30 02:37:31;;;;;;;13.27;11.90;;;7.10;99.90;;;;;;5041690;28;20230;-74
2023/03/30 02:40:07;;;;;;;13.48;12.07;;;7.20;99.90;;;;;;5034879;28;20180;-74
2023/03/30 02:42:51;;;;;;;13.57;12.18;;;7.10;99.90;;;;;;5041394;28;20287;-74
2023/03/30 02:45:32;;;;;;;13.30;12.00;;;7.10;99.90;;;;;;5036784;28;20674;-74
2023/03/30 02:48:10;;;;;;;14.98;13.02;;;7.10;99.90;;;;;;5042442;28;20287;-74
2023/03/30 02:51:03;;;;;;;13.50;11.73;;;7.00;99.90;;;;;;5030274;28;20235;-74
2023/03/30 02:53:36;;;;;;;14.55;12.60;;;7.00;99.90;;;;;;5040865;28;20261;-77
2023/03/30 02:56:22;;;;;;;13.18;11.68;;;7.00;99.90;;;;;;5035202;28;20185;-75
2023/03/30 02:59:25;;;;;;;15.55;13.77;;;7.00;99.90;;;;;;5025520;28;20200;-75
2023/03/30 03:01:57;;;;;;;14.52;12.88;;;7.00;99.90;;;;;;5021288;28;20223;-75
2023/03/30 03:04:27;;;;;;;14.43;10.68;;;7.00;99.90;;;;;;5030801;28;20526;-74
2023/03/30 03:06:54;;;;;;;15.30;12.90;;;7.10;99.90;;;;;;5030413;28;20200;-75
2023/03/30 03:09:23;;;;;;;12.75;11.45;;;7.00;99.90;;;;;;5035398;28;20242;-75
2023/03/30 03:11:50;;;;;;;13.93;12.50;;;7.10;99.90;;;;;;5030331;28;20192;-75
2023/03/30 03:14:17;;;;;;;12.43;11.07;;;7.10;99.90;;;;;;5043832;28;20692;-75
2023/03/30 03:16:42;;;;;;;13.95;12.40;;;7.10;99.90;;;;;;5033805;28;20189;-74
2023/03/30 03:19:08;;;;;;;13.50;12.07;;;7.00;99.90;;;;;;5034931;28;20563;-75
2023/03/30 03:21:35;;;;;;;14.30;11.65;;;7.10;99.90;;;;;;5027116;28;20177;-74
2023/03/30 03:24:02;;;;;;;13.95;12.05;;;7.10;99.90;;;;;;5023710;28;20177;-74
2023/03/30 03:26:28;;;;;;;13.77;11.90;;;7.10;99.90;;;;;;5027016;28;20203;-74
2023/03/30 03:28:53;;;;;;;15.10;11.52;;;7.10;99.90;;;;;;5031425;28;20685;-74
2023/03/30 03:31:19;;;;;;;12.85;11.57;;;7.10;99.90;;;;;;5039264;28;20243;-75
2023/03/30 03:33:45;;;;;;;13.50;11.93;;;7.10;99.90;;;;;;5037147;28;20183;-75
2023/03/30 03:36:10;;;;;;;13.30;12.00;;;7.10;99.90;;;;;;5042606;28;20173;-75
2023/03/30 03:38:37;;;;;;;12.40;10.90;;;7.10;99.90;;;;;;5038784;28;20180;-74
2023/03/30 03:41:02;;;;;;;15.70;12.10;;;7.10;99.90;;;;;;5037914;28;20168;-74
2023/03/30 03:43:28;;;;;;;12.35;10.52;;;7.10;99.90;;;;;;5028055;28;20577;-75
2023/03/30 03:45:55;;;;;;;12.18;11.05;;;7.20;99.90;;;;;;5033427;28;20873;-75
2023/03/30 03:48:23;;;;;;;14.38;11.82;;;7.30;99.90;;;;;;5044361;28;20192;-74
2023/03/30 03:50:51;;;;;;;13.38;11.27;;;7.30;99.90;;;;;;5038445;28;20256;-74
2023/03/30 03:53:16;;;;;;;12.35;11.05;;;7.20;99.90;;;;;;5038916;28;20278;-75
2023/03/30 03:55:43;;;;;;;14.73;11.63;;;7.20;99.90;;;;;;5044524;28;20181;-74
2023/03/30 03:58:09;;;;;;;12.82;11.43;;;7.10;99.90;;;;;;5040022;28;20180;-75
2023/03/30 04:00:34;;;;;;;12.88;11.43;;;7.10;99.90;;;;;;5029619;28;20675;-73
2023/03/30 04:03:00;;;;;;;11.18;10.05;;;7.10;99.90;;;;;;5033357;28;20262;-74
2023/03/30 04:05:26;;;;;;;11.30;10.20;;;7.00;99.90;;;;;;5040091;28;20180;-74
2023/03/30 04:07:55;;;;;;;12.00;10.80;;;7.00;99.90;;;;;;5034696;28;20187;-74
2023/03/30 04:10:21;;;;;;;12.90;11.13;;;7.00;99.90;;;;;;5022321;28;20257;-75
2023/03/30 04:12:47;;;;;;;10.50;9.48;;;7.00;99.90;;;;;;5030699;28;20265;-74
2023/03/30 04:15:14;;;;;;;11.85;10.52;;;7.10;99.90;;;;;;5038807;28;20173;-74
2023/03/30 04:17:39;;;;;;;12.93;10.60;;;7.20;99.90;;;;;;5036867;28;20551;-75
2023/03/30 04:20:11;;;;;;;11.80;10.25;;;7.20;99.90;;;;;;5030373;28;20271;-76
2023/03/30 04:22:40;;;;;;;11.95;10.73;;;7.20;99.90;;;;;;5022281;28;20210;-75
2023/03/30 04:25:07;;;;;;;11.90;10.70;;;7.30;99.90;;;;;;5024376;28;20588;-75
2023/03/30 04:27:33;;;;;;;12.38;10.63;;;7.20;99.90;;;;;;5028452;28;20208;-74
2023/03/30 04:30:00;;;;;;;11.35;10.30;;;7.20;99.90;;;;;;5027724;28;20214;-74
2023/03/30 04:32:26;;;;;;;12.50;11.18;;;7.20;99.90;;;;;;5035132;28;20192;-74
2023/03/30 04:34:55;;;;;;;15.48;12.90;;;7.20;99.90;;;;;;5039623;28;20230;-76
2023/03/30 04:37:29;;;;;;;12.18;10.93;;;7.20;99.90;;;;;;5034269;28;20188;-74
2023/03/30 04:39:56;;;;;;;15.50;12.30;;;7.20;99.90;;;;;;5036025;28;20263;-75
2023/03/30 04:42:29;;;;;;;13.02;11.65;;;7.10;99.90;;;;;;5034739;28;20219;-72
2023/03/30 04:44:56;;;;;;;13.23;11.82;;;7.20;99.90;;;;;;5032125;28;20181;-74
2023/03/30 04:47:23;;;;;;;12.63;11.30;;;7.20;99.90;;;;;;5045086;28;20208;-75
2023/03/30 04:49:48;;;;;;;12.90;11.40;;;7.20;99.90;;;;;;5033599;28;20192;-73
2023/03/30 04:52:14;;;;;;;12.60;11.38;;;7.30;99.90;;;;;;5027939;28;20213;-74
2023/03/30 04:54:39;;;;;;;12.80;11.30;;;7.30;99.90;;;;;;5042704;28;20183;-76
2023/03/30 04:57:06;;;;;;;11.90;10.65;;;7.30;99.90;;;;;;5040463;28;20311;-74
2023/03/30 04:59:31;;;;;;;13.02;11.55;;;7.30;99.90;;;;;;5041609;28;20183;-72
2023/03/30 05:01:57;;;;;;;13.98;10.93;;;7.30;99.90;;;;;;5038799;28;20292;-74
2023/03/30 05:04:23;;;;;;;13.48;11.45;;;7.30;99.90;;;;;;5044354;28;20177;-76
2023/03/30 05:06:48;;;;;;;12.65;11.18;;;7.30;99.90;;;;;;5035925;28;20203;-74
2023/03/30 05:09:15;;;;;;;13.40;11.10;;;7.30;99.90;;;;;;5031404;28;20185;-74
2023/03/30 05:11:41;;;;;;;12.48;11.30;;;7.40;99.90;;;;;;5027547;28;20299;-74
2023/03/30 05:14:06;;;;;;;14.23;11.43;;;7.40;99.90;;;;;;5030116;28;20184;-74
2023/03/30 05:16:32;;;;;;;13.45;12.05;;;7.50;99.90;;;;;;5035266;28;20176;-74
2023/03/30 05:18:57;;;;;;;12.88;11.55;;;7.50;99.90;;;;;;5029610;28;20730;-76
2023/03/30 05:21:23;;;;;;;13.70;11.90;;;7.50;99.90;;;;;;5034184;28;20199;-74
2023/03/30 05:23:49;;;;;;;13.68;12.15;;;7.60;99.90;;;;;;5041523;28;20518;-73
2023/03/30 05:26:14;;;;;;;15.35;12.73;;;7.50;99.90;;;;;;5032955;28;20267;-74
2023/03/30 05:28:41;;;;;;;13.90;11.90;;;7.50;99.90;;;;;;5033754;28;20176;-74
2023/03/30 05:31:07;;;;;;;13.27;11.98;;;7.50;99.90;;;;;;5037203;28;20173;-73
2023/03/30 05:33:33;;;;;;;11.85;10.70;;;7.50;99.90;;;;;;5035983;28;20216;-73
2023/03/30 05:35:59;;;;;;;13.52;12.23;;;7.50;99.90;;;;;;5032825;28;20644;-74
2023/03/30 05:38:25;;;;;;;13.00;11.60;;;7.50;99.90;;;;;;5032778;28;20185;-73
2023/03/30 05:40:53;;;;;;;13.90;12.00;;;7.60;99.90;;;;;;5031653;28;20183;-74
2023/03/30 05:43:19;;;;;;;13.55;11.07;;;7.50;99.90;;;;;;5025006;28;20209;-73
2023/03/30 05:45:45;;;;;;;12.48;11.18;;;7.60;99.90;;;;;;5033329;28;20204;-73
2023/03/30 05:48:11;;;;;;;15.00;12.40;;;7.50;99.90;;;;;;5040324;28;20219;-74
2023/03/30 05:50:37;;;;;;;13.38;12.15;;;7.50;99.90;;;;;;5035716;28;20208;-74
2023/03/30 05:53:02;;;;;;;13.35;11.98;;;7.40;99.90;;;;;;5026945;28;20661;-73
2023/03/30 05:55:28;;;;;;;12.63;11.27;;;7.40;99.90;;;;;;5022155;28;20558;-74
2023/03/30 05:57:53;;;;;;;14.27;12.80;;;7.50;99.90;;;;;;5025752;28;20173;-77
2023/03/30 06:00:21;;;;;;;15.48;13.35;;;7.50;99.90;;;;;;5029621;28;20190;-75
2023/03/30 06:02:47;;;;;;;14.25;12.80;;;7.40;99.90;;;;;;5039731;28;20663;-75
2023/03/30 06:05:13;;;;;;;15.48;13.75;;;7.40;99.90;;;;;;5031868;28;20712;-74
2023/03/30 06:07:39;;;;;;;19.25;14.10;;;7.40;99.90;;;;;;5032636;28;20264;-75
2023/03/30 06:10:06;;;;;;;17.48;12.60;;;7.40;99.90;;;;;;5029044;28;20178;-75
2023/03/30 06:12:32;;;;;;;14.00;12.55;;;7.40;99.90;;;;;;5026624;28;20265;-75
2023/03/30 06:15:01;;;;;;;18.65;13.73;;;7.40;99.90;;;;;;5038765;28;21040;-75
2023/03/30 06:17:27;;;;;;;16.50;13.73;;;7.40;99.90;;;;;;5032479;28;20266;-76
2023/03/30 06:19:53;;;;;;;14.77;13.18;;;7.50;99.90;;;;;;5036786;28;20257;-75
2023/03/30 06:22:20;;;;;;;16.55;13.27;;;7.50;99.90;;;;;;5036221;28;20219;-75
2023/03/30 06:24:46;;;;;;;17.67;13.60;;;7.50;99.90;;;;;;5032178;28;20188;-75
2023/03/30 06:27:11;;;;;;;17.50;14.40;;;7.40;99.90;;;;;;5025686;28;21046;-75
2023/03/30 06:29:37;;;;;;;19.90;14.52;;;7.40;99.90;;;;;;5033699;28;20260;-75
2023/03/30 06:32:03;;;;;;;15.43;13.75;;;7.40;99.90;;;;;;5037358;28;20200;-75
2023/03/30 06:34:29;;;;;;;20.50;13.68;;;7.50;99.90;;;;;;5030212;28;20169;-75
2023/03/30 06:36:56;;;;;;;18.80;15.00;;;7.60;99.90;;;;;;5024616;28;20207;-75
2023/03/30 06:39:21;;;;;;;18.02;15.18;;;7.60;99.90;;;;;;5043572;28;20642;-75
2023/03/30 06:41:47;;;;;;;15.38;13.77;;;7.80;99.90;;;;;;5033991;28;20213;-76
2023/03/30 06:44:15;;;;;;;17.33;14.65;;;7.80;99.90;;;;;;5023764;28;20188;-76
2023/03/30 06:46:41;;;;;;;18.88;13.55;;;7.80;99.90;;;;;;5038053;28;20203;-76
2023/03/30 06:49:07;;;;;;;17.35;13.10;;;7.80;99.90;;;;;;5032072;28;20177;-76
2023/03/30 06:51:36;;;;;;;17.58;14.32;;;7.70;99.90;;;;;;5045451;28;20670;-76
2023/03/30 06:54:02;;;;;;;18.42;13.93;;;7.80;99.90;;;;;;5031142;28;20181;-76
2023/03/30 06:56:28;;;;;;;15.88;13.18;;;7.80;99.90;;;;;;5039625;28;20211;-76
2023/03/30 06:58:55;;;;;;;16.67;13.80;;;7.90;99.90;;;;;;5032584;28;20260;-77
2023/03/30 07:01:21;;;;;;;15.45;13.52;;;8.00;99.90;;;;;;5028942;28;20204;-75
2023/03/30 07:03:47;;;;;;;16.10;13.27;;;8.10;99.90;;;;;;5028327;28;20661;-76
2023/03/30 07:06:12;;;;;;;13.98;12.50;;;8.30;99.90;;;;;;5034826;28;20213;-76
2023/03/30 07:08:39;;;;;;;17.10;12.55;;;8.30;99.90;;;;;;5034725;28;20196;-75
2023/03/30 07:11:08;;;;;;;15.27;12.38;;;8.50;99.90;;;;;;5026307;28;20710;-76
2023/03/30 07:13:33;;;;;;;14.18;11.95;;;8.90;99.90;;;;;;5037428;28;20203;-76
2023/03/30 07:15:59;;;;;;;13.35;11.60;;;9.00;99.90;;;;;;5038099;28;20254;-75
2023/03/30 07:18:25;;;;;;;13.75;11.55;;;9.10;99.90;;;;;;5024532;28;20185;-75
2023/03/30 07:20:58;;;;;;;14.07;11.05;;;9.10;99.90;;;;;;5099739;28;20623;-75
2023/03/30 07:23:24;;;;;;;21.05;12.18;;;9.10;99.90;;;;;;5078992;28;20203;-76
2023/03/30 07:25:50;;;;;;;12.85;10.98;;;9.10;99.90;;;;;;5053167;28;20201;-77
2023/03/30 07:28:16;;;;;;;12.02;10.85;;;9.20;99.90;;;;;;5066749;28;20175;-75
2023/03/30 07:30:42;;;;;;;13.38;10.10;;;9.30;99.90;;;;;;5073106;28;20210;-76
2023/03/30 07:33:07;;;;;;;11.35;9.98;;;9.50;99.90;;;;;;5063169;28;20662;-76
2023/03/30 07:35:33;;;;;;;12.98;10.45;;;9.70;99.90;;;;;;5068149;28;20202;-76
2023/03/30 07:37:59;;;;;;;15.93;10.75;;;10.00;99.90;;;;;;5066995;28;20232;-76
2023/03/30 07:40:25;;;;;;;10.90;9.68;;;10.30;99.90;;;;;;5077701;28;20268;-77
2023/03/30 07:42:50;;;;;;;12.95;9.77;;;10.50;99.90;;;;;;5054365;28;20289;-76
2023/03/30 07:45:16;;;;;;;14.43;10.05;;;10.70;99.90;;;;;;5058897;28;20599;-77
2023/03/30 07:47:42;;;;;;;10.90;9.73;;;10.80;99.90;;;;;;5074864;28;20638;-75
2023/03/30 07:50:08;;;;;;;15.43;9.60;;;11.00;99.90;;;;;;5067479;28;20191;-75
2023/03/30 07:52:34;;;;;;;12.63;10.23;;;11.00;99.90;;;;;;5053307;28;20242;-78
2023/03/30 07:55:00;;;;;;;15.15;10.18;;;11.10;99.90;;;;;;5073035;28;20218;-78
2023/03/30 07:57:25;;;;;;;9.85;8.85;;;11.20;99.90;;;;;;5068861;28;20182;-75
2023/03/30 07:59:51;;;;;;;10.27;8.80;;;11.20;99.90;;;;;;5070210;28;20206;-77
2023/03/30 08:02:16;;;;;;;10.18;9.23;;;11.10;99.90;;;;;;5064077;28;20253;-79
2023/03/30 08:04:43;;;;;;;12.23;8.68;;;11.00;99.90;;;;;;5065181;28;20202;-78
2023/03/30 08:07:10;;;;;;;9.68;8.07;;;11.10;99.90;;;;;;5053830;28;20693;-77
2023/03/30 08:09:35;;;;;;;11.15;9.20;;;11.10;99.90;;;;;;5077688;28;20178;-77
2023/03/30 08:12:02;;;;;;;10.98;8.25;;;11.10;99.90;;;;;;5072758;28;20211;-77
2023/03/30 08:14:27;;;;;;;12.00;8.68;;;10.90;99.90;;;;;;5065581;28;20171;-76
2023/03/30 08:16:53;;;;;;;9.85;8.85;;;10.80;99.90;;;;;;5064001;28;20553;-77
2023/03/30 08:19:21;;;;;;;11.82;8.88;;;10.50;99.90;;;;;;5074873;28;20211;-77
2023/03/30 08:21:47;;;;;;;15.70;9.13;;;10.40;99.90;;;;;;5066674;28;20679;-77
2023/03/30 08:24:12;;;;;;;14.02;9.25;;;10.40;99.90;;;;;;5062200;28;20183;-78
2023/03/30 08:26:38;;;;;;;11.02;9.40;;;10.40;99.90;;;;;;5074987;28;20655;-76
2023/03/30 08:29:04;;;;;;;9.77;8.73;;;10.40;99.90;;;;;;5071663;28;20606;-76
2023/03/30 08:31:33;;;;;;;12.32;9.40;;;10.40;99.90;;;;;;5061141;28;20196;-78
2023/03/30 08:33:59;;;;;;;13.25;8.93;;;10.40;99.90;;;;;;5062966;28;20262;-77
2023/03/30 08:36:25;;;;;;;12.57;9.95;;;10.40;99.90;;;;;;5060932;28;20176;-76
2023/03/30 08:38:53;;;;;;;11.55;9.38;;;10.40;99.90;;;;;;5054950;28;20204;-76
2023/03/30 08:41:48;;;;;;;11.55;10.30;;;10.30;99.90;;;;;;5062059;28;20262;-76
2023/03/30 08:44:24;;;;;;;11.75;10.45;;;10.30;99.90;;;;;;5049536;28;20172;-77
2023/03/30 08:46:50;;;;;;;11.27;10.13;;;10.10;99.90;;;;;;5055824;28;20185;-76
2023/03/30 08:49:18;;;;;;;11.70;10.25;;;9.90;99.90;;;;;;5058401;28;20276;-77
2023/03/30 08:51:46;;;;;;;13.25;10.45;;;9.80;99.90;;;;;;5052276;28;20237;-78
2023/03/30 08:54:16;;;;;;;12.30;10.80;;;9.70;99.90;;;;;;5054415;28;20242;-76
2023/03/30 08:56:47;;;;;;;13.63;10.88;;;9.60;99.90;;;;;;5057060;28;20192;-77
2023/03/30 08:59:28;;;;;;;13.65;10.95;;;9.70;99.90;;;;;;5046861;28;20218;-76
2023/03/30 09:02:39;;;;;;;15.32;11.13;;;9.80;99.90;;;;;;5036731;28;20699;-77
2023/03/30 09:05:14;;;;;;;12.55;10.98;;;9.80;99.90;;;;;;4952612;29;20195;-77
2023/03/30 09:08:02;;;;;;;15.35;11.65;;;9.70;99.90;;;;;;4949535;29;20253;-77
2023/03/30 09:10:31;;;;;;;13.65;11.80;;;9.60;99.90;;;;;;5018304;28;20639;-77
2023/03/30 09:13:00;;;;;;;12.88;10.43;;;9.80;99.90;;;;;;5033274;28;20200;-77
2023/03/30 09:15:32;;;;;;;15.70;11.98;;;10.10;99.90;;;;;;5054392;28;20164;-78
2023/03/30 09:18:01;;;;;;;12.40;11.20;;;10.50;99.90;;;;;;5039772;28;20182;-77
2023/03/30 09:20:29;;;;;;;13.05;11.13;;;10.70;99.90;;;;;;5052672;28;20234;-78
2023/03/30 09:22:58;;;;;;;16.15;11.00;;;10.80;99.90;;;;;;5062814;28;20200;-79
2023/03/30 09:25:39;;;;;;;13.98;10.88;;;10.90;99.90;;;;;;5068405;28;20184;-82
2023/03/30 09:28:23;;;;;;;11.50;10.18;;;11.20;99.90;;;;;;5063585;28;20190;-79
2023/03/30 09:31:04;;;;;;;13.35;9.88;;;11.60;99.90;;;;;;5061415;28;20187;-79
2023/03/30 09:34:01;;;;;;;12.30;10.32;;;11.70;99.90;;;;;;5055357;28;20233;-80
2023/03/30 09:36:50;;;;;;;11.60;10.23;;;11.60;99.90;;;;;;5045542;28;20183;-79
2023/03/30 09:39:20;;;;;;;13.90;10.48;;;11.40;99.90;;;;;;5047516;28;20204;-78
2023/03/30 09:42:12;;;;;;;14.07;9.65;;;11.20;99.90;;;;;;5027908;28;20192;-77
2023/03/30 09:44:51;;;;;;;10.75;8.80;;;11.10;99.90;;;;;;5047338;28;20195;-77
2023/03/30 09:47:28;;;;;;;14.30;10.60;;;11.10;99.90;;;;;;5048034;28;20267;-77
2023/03/30 09:49:59;;;;;;;14.80;11.00;;;11.00;99.90;;;;;;5047790;28;20218;-78
2023/03/30 09:52:27;;;;;;;13.18;10.57;;;10.90;99.90;;;;;;5042357;28;20695;-77
2023/03/30 09:54:53;;;;;;;14.50;11.15;;;10.90;99.90;;;;;;5057069;28;20233;-77
2023/03/30 09:57:31;;;;;;;11.45;10.25;;;10.70;99.90;;;;;;5049525;28;20184;-78
2023/03/30 09:59:59;;;;;;;12.30;10.82;;;10.70;99.90;;;;;;5049975;28;20203;-77
2023/03/30 10:02:27;;;;;;;14.65;11.85;;;10.60;99.90;;;;;;5052342;28;20686;-77
2023/03/30 10:04:59;;;;;;;12.57;11.27;;;10.50;99.90;;;;;;5058567;28;20185;-77
2023/03/30 10:07:31;;;;;;;12.60;10.32;;;10.40;99.90;;;;;;5057353;28;20184;-78
2023/03/30 10:10:00;;;;;;;14.52;10.88;;;10.50;99.90;;;;;;5045527;28;20708;-78
2023/03/30 10:12:28;;;;;;;15.50;11.50;;;10.50;99.90;;;;;;5053518;28;20204;-77
2023/03/30 10:15:18;;;;;;;12.73;11.00;;;10.50;99.90;;;;;;5042486;28;20229;-79
2023/03/30 10:17:50;;;;;;;14.25;11.07;;;10.60;99.90;;;;;;5028725;28;20187;-77
2023/03/30 10:20:37;;;;;;;12.88;11.48;;;10.60;99.90;;;;;;5060536;28;20287;-77
2023/03/30 10:23:11;;;;;;;16.55;12.15;;;10.50;99.90;;;;;;5048420;28;20234;-76
2023/03/30 10:25:41;;;;;;;14.90;11.60;;;10.50;99.90;;;;;;5055397;28;20176;-76
2023/03/30 10:28:24;;;;;;;15.65;11.23;;;10.50;99.90;;;;;;5039936;28;20197;-76
2023/03/30 10:31:02;;;;;;;15.65;12.50;;;10.70;99.90;;;;;;5034785;28;20187;-77
2023/03/30 10:33:30;;;;;;;12.77;11.48;;;10.70;99.90;;;;;;5045780;28;20605;-76
2023/03/30 10:35:59;;;;;;;13.98;11.13;;;10.70;99.90;;;;;;5051282;28;20262;-76
2023/03/30 10:38:31;;;;;;;14.43;11.48;;;10.60;99.90;;;;;;5051092;28;20237;-76
2023/03/30 10:41:06;;;;;;;17.75;12.95;;;10.70;99.90;;;;;;5051147;28;20211;-76
2023/03/30 10:43:33;;;;;;;12.88;11.57;;;10.60;99.90;;;;;;5051334;28;20191;-76
2023/03/30 10:46:26;;;;;;;16.42;11.13;;;10.50;99.90;;;;;;5052977;28;20499;-75
2023/03/30 10:49:00;;;;;;;15.85;12.07;;;10.40;99.90;;;;;;5046675;28;20200;-79
2023/03/30 10:51:50;;;;;;;12.27;10.85;;;10.40;99.90;;;;;;5053678;28;20220;-77
2023/03/30 10:54:41;;;;;;;15.68;12.82;;;10.50;99.90;;;;;;5046159;28;20176;-79
2023/03/30 10:57:14;;;;;;;11.68;10.55;;;10.60;99.90;;;;;;5048510;28;20184;-78
2023/03/30 11:00:08;;;;;;;13.88;12.07;;;10.80;99.90;;;;;;5060545;28;20213;-78
2023/03/30 11:02:40;;;;;;;13.27;11.68;;;11.00;99.90;;;;;;5052042;28;20513;-76
2023/03/30 11:05:08;;;;;;;12.35;10.95;;;11.00;99.90;;;;;;5058731;28;20207;-76
2023/03/30 11:07:40;;;;;;;11.88;10.57;;;11.20;99.90;;;;;;5041484;28;20183;-81
2023/03/30 11:10:32;;;;;;;14.90;10.13;;;11.50;99.90;;;;;;5057247;28;20643;-79
2023/03/30 11:13:09;;;;;;;12.55;9.85;;;11.60;99.90;;;;;;5050745;28;20693;-76
2023/03/30 11:16:00;;;;;;;13.05;9.32;;;11.70;99.90;;;;;;5051423;28;20183;-76
2023/03/30 11:18:52;;;;;;;14.00;9.27;;;11.70;99.90;;;;;;5049733;28;20642;-76
2023/03/30 11:21:32;;;;;;;14.13;9.98;;;11.60;99.90;;;;;;5051607;28;20195;-76
2023/03/30 11:24:05;;;;;;;13.35;10.68;;;11.50;99.90;;;;;;5038516;28;20750;-78
2023/03/30 11:26:50;;;;;;;12.73;9.35;;;11.30;99.90;;;;;;5061917;28;20293;-76
2023/03/30 11:29:34;;;;;;;12.30;10.75;;;11.20;99.90;;;;;;5050195;28;20184;-77
2023/03/30 11:32:18;;;;;;;13.00;9.80;;;11.20;99.90;;;;;;5044093;28;20203;-78
2023/03/30 11:34:58;;;;;;;13.18;11.10;;;11.40;99.90;;;;;;5043879;28;20250;-77
2023/03/30 11:38:08;;;;;;;12.73;10.27;;;11.40;99.90;;;;;;5060325;28;20178;-78
2023/03/30 11:40:59;;;;;;;13.00;10.93;;;11.30;99.90;;;;;;5046269;28;20225;-78
2023/03/30 11:43:29;;;;;;;12.27;10.63;;;11.20;99.90;;;;;;5035909;28;20271;-82
2023/03/30 11:46:22;;;;;;;15.35;10.98;;;11.20;99.90;;;;;;5031845;28;20176;-77
2023/03/30 11:48:57;;;;;;;13.52;11.25;;;11.20;99.90;;;;;;5031027;28;20220;-76
2023/03/30 11:51:45;;;;;;;12.05;10.88;;;11.10;99.90;;;;;;5030177;28;20718;-75
2023/03/30 11:54:14;;;;;;;12.98;11.68;;;11.00;99.90;;;;;;5048176;28;20191;-78
2023/03/30 11:57:11;;;;;;;14.15;12.40;;;10.80;99.90;;;;;;5038380;28;20184;-78
2023/03/30 12:00:07;;;;;;;15.20;12.52;;;10.70;99.90;;;;;;5047623;28;20576;-77
2023/03/30 12:03:15;;;;;;;14.82;13.25;;;10.60;99.90;;;;;;5061056;28;20282;-76
2023/03/30 12:05:48;;;;;;;17.25;13.52;;;10.50;99.90;;;;;;5052959;28;20195;-76
2023/03/30 12:08:47;;;;;;;14.25;12.80;;;10.60;99.90;;;;;;5057221;28;20214;-75
2023/03/30 12:11:26;;;;;;;14.00;12.60;;;10.70;99.90;;;;;;5051227;28;20199;-76
2023/03/30 12:13:52;;;;;;;16.40;13.93;;;10.90;99.90;;;;;;5054974;28;20180;-75
2023/03/30 12:16:35;;;;;;;14.90;13.35;;;11.10;99.90;;;;;;5060245;28;20659;-78
2023/03/30 12:19:08;;;;;;;12.23;10.90;;;11.30;99.90;;;;;;5053749;28;20231;-76
2023/03/30 12:21:49;;;;;;;12.68;11.50;;;11.50;99.90;;;;;;5046018;28;20241;-78
2023/03/30 12:24:19;;;;;;;13.43;12.02;;;11.70;99.90;;;;;;5059248;28;20172;-78
2023/03/30 12:26:45;;;;;;;14.50;12.05;;;12.00;99.90;;;;;;5050352;28;20203;-76
2023/03/30 12:29:13;;;;;;;14.63;13.10;;;12.20;99.90;;;;;;5050523;28;20196;-77
2023/03/30 12:31:57;;;;;;;12.88;11.20;;;12.30;99.90;;;;;;5059962;28;20207;-79
2023/03/30 12:34:27;;;;;;;12.20;11.00;;;12.30;99.90;;;;;;5060250;28;20179;-80
2023/03/30 12:36:59;;;;;;;14.38;11.75;;;12.20;99.90;;;;;;5055184;28;20192;-77
2023/03/30 12:39:32;;;;;;;12.05;10.85;;;12.30;99.90;;;;;;5064554;28;20556;-76
2023/03/30 12:42:26;;;;;;;14.15;12.55;;;12.40;99.90;;;;;;5062117;28;20556;-76
2023/03/30 12:45:30;;;;;;;12.73;10.60;;;12.50;99.90;;;;;;5049111;28;20180;-76
2023/03/30 12:48:02;;;;;;;14.60;10.10;;;12.60;99.90;;;;;;5054268;28;20242;-77
2023/03/30 12:50:40;;;;;;;16.27;11.18;;;12.90;99.90;;;;;;5047593;28;20259;-76
2023/03/30 12:53:11;;;;;;;15.27;9.98;;;13.00;99.90;;;;;;5039695;28;20203;-76
2023/03/30 12:56:03;;;;;;;14.55;10.85;;;13.20;99.90;;;;;;5031172;28;20214;-76
2023/03/30 12:58:41;;;;;;;13.75;10.07;;;13.40;99.90;;;;;;5034742;28;20744;-77